createdAt,value
2022-09-23T00:00:05.288Z,10
2022-09-23T00:02:08.364Z,10
2022-09-23T00:04:11.518Z,9.8
2022-09-23T00:06:17.905Z,9.9
2022-09-23T00:08:21.028Z,9.9
2022-09-23T00:10:24.208Z,9.8
2022-09-23T00:11:27.373Z,9.8
2022-09-23T00:13:30.547Z,9.7
2022-09-23T00:15:33.854Z,9.7
2022-09-23T00:17:37.087Z,9.6
2022-09-23T00:19:43.465Z,9.6
2022-09-23T00:21:46.629Z,9.6
2022-09-23T00:23:49.769Z,9.6
2022-09-23T00:25:52.944Z,9.7
2022-09-23T00:29:59.262Z,9.8
2022-09-23T00:32:02.434Z,9.7
2022-09-23T00:34:08.766Z,9.7
2022-09-23T00:36:11.907Z,9.6
2022-09-23T00:38:15.085Z,9.7
2022-09-23T00:40:18.327Z,9.5
2022-09-23T00:42:21.395Z,9.5
2022-09-23T00:46:27.744Z,9.5
2022-09-23T00:48:34.071Z,9.5
2022-09-23T00:50:37.231Z,9.5
2022-09-23T00:52:40.389Z,9.5
2022-09-23T00:54:43.538Z,9.5
2022-09-23T00:56:46.720Z,9.5
2022-09-23T00:58:49.828Z,9.6
2022-09-23T01:00:53.002Z,9.6
2022-09-23T01:02:59.342Z,9.6
2022-09-23T01:05:02.505Z,9.5
2022-09-23T01:08:08.822Z,9.5
2022-09-23T01:10:12.012Z,9.4
2022-09-23T01:12:15.126Z,9.5
2022-09-23T01:14:18.300Z,9.4
2022-09-23T01:16:24.650Z,9.5
2022-09-23T01:18:27.764Z,9.4
2022-09-23T01:20:30.921Z,9.5
2022-09-23T01:22:34.071Z,9.4
2022-09-23T01:24:37.204Z,9.3
2022-09-23T01:26:40.354Z,9.3
2022-09-23T01:28:43.508Z,9.2
2022-09-23T01:30:49.934Z,9.2
2022-09-23T01:32:53.049Z,9.2
2022-09-23T01:34:56.177Z,9.3
2022-09-23T01:36:59.324Z,9.2
2022-09-23T01:39:02.510Z,9.3
2022-09-23T01:47:18.279Z,9.3
2022-09-23T01:49:21.447Z,9.1
2022-09-23T01:51:24.556Z,9.1
2022-09-23T01:53:27.709Z,9
2022-09-23T01:55:30.843Z,8.9
2022-09-23T01:59:40.346Z,8.9
2022-09-23T02:01:43.561Z,8.9
2022-09-23T02:03:46.660Z,9
2022-09-23T02:06:04.869Z,8.8
2022-09-23T02:08:07.989Z,8.8
2022-09-23T02:10:11.750Z,8.9
2022-09-23T02:12:17.493Z,8.9
2022-09-23T02:14:20.635Z,8.8
2022-09-23T02:16:23.784Z,8.8
2022-09-23T02:18:26.921Z,8.8
2022-09-23T02:20:30.054Z,8.7
2022-09-23T02:22:33.226Z,8.8
2022-09-23T02:24:36.350Z,8.8
2022-09-23T02:26:42.693Z,8.8
2022-09-23T02:28:45.840Z,8.7
2022-09-23T02:30:48.997Z,8.7
2022-09-23T02:32:52.137Z,8.7
2022-09-23T02:39:01.582Z,8.7
2022-09-23T02:41:07.924Z,8.7
2022-09-23T02:45:14.323Z,8.6
2022-09-23T02:47:17.315Z,8.6
2022-09-23T02:49:20.487Z,8.7
2022-09-23T02:51:23.595Z,8.7
2022-09-23T02:53:26.737Z,8.7
2022-09-23T02:55:33.091Z,8.6
2022-09-23T02:57:36.237Z,8.6
2022-09-23T02:59:39.370Z,8.7
2022-09-23T03:00:42.555Z,8.6
2022-09-23T03:02:45.692Z,8.6
2022-09-23T03:04:48.823Z,8.6
2022-09-23T03:06:51.960Z,8.6
2022-09-23T03:08:58.336Z,8.6
2022-09-23T03:11:01.460Z,8.5
2022-09-23T03:13:04.618Z,8.5
2022-09-23T03:15:07.948Z,8.4
2022-09-23T03:17:10.885Z,8.5
2022-09-23T03:19:14.032Z,8.3
2022-09-23T03:21:17.190Z,8.3
2022-09-23T03:23:23.535Z,8.4
2022-09-23T03:25:26.667Z,8.4
2022-09-23T03:27:29.798Z,8.4
2022-09-23T03:29:32.937Z,8.4
2022-09-23T03:31:36.113Z,8.3
2022-09-23T03:33:39.206Z,8.2
2022-09-23T03:35:42.370Z,8.3
2022-09-23T03:37:48.708Z,8.2
2022-09-23T03:39:51.833Z,8.2
2022-09-23T03:43:58.143Z,8.2
2022-09-23T03:46:01.401Z,8.1
2022-09-23T03:48:04.422Z,8.2
2022-09-23T03:50:07.565Z,8.3
2022-09-23T03:52:13.912Z,8.2
2022-09-23T03:54:17.036Z,8.1
2022-09-23T03:56:20.201Z,8.1
2022-09-23T03:57:23.338Z,8.2
2022-09-23T03:59:26.490Z,8.3
2022-09-23T04:01:29.680Z,8.2
2022-09-23T04:03:32.766Z,8.1
2022-09-23T04:05:39.123Z,8.2
2022-09-23T04:07:42.243Z,8.2
2022-09-23T04:09:45.378Z,8.1
2022-09-23T04:11:48.509Z,8.1
2022-09-23T04:13:51.633Z,8.2
2022-09-23T04:15:54.843Z,8.2
2022-09-23T04:17:57.922Z,8.2
2022-09-23T04:20:04.267Z,8.1
2022-09-23T04:22:07.393Z,8.2
2022-09-23T04:24:10.524Z,8.2
2022-09-23T04:26:13.667Z,8.2
2022-09-23T04:28:16.799Z,8.1
2022-09-23T04:30:19.922Z,8.1
2022-09-23T04:32:23.085Z,8.1
2022-09-23T04:34:29.393Z,8.2
2022-09-23T04:38:35.639Z,8.2
2022-09-23T04:40:38.886Z,8.2
2022-09-23T04:42:41.989Z,8.1
2022-09-23T04:46:48.454Z,8.2
2022-09-23T04:48:54.532Z,8.1
2022-09-23T04:50:57.645Z,8.1
2022-09-23T05:02:21.326Z,8.2
2022-09-23T05:06:27.512Z,8.2
2022-09-23T05:08:30.660Z,8.2
2022-09-23T05:10:33.775Z,8.3
2022-09-23T05:12:36.921Z,8.2
2022-09-23T05:14:40.029Z,8.2
2022-09-23T05:16:46.366Z,8.2
2022-09-23T05:18:49.495Z,8.3
2022-09-23T05:22:55.778Z,8.3
2022-09-23T05:27:02.048Z,8.3
2022-09-23T05:29:05.160Z,8.3
2022-09-23T05:31:14.685Z,8.3
2022-09-23T05:33:14.669Z,8.3
2022-09-23T05:35:17.782Z,8.4
2022-09-23T05:37:20.917Z,8.4
2022-09-23T05:39:24.059Z,8.3
2022-09-23T05:41:27.192Z,8.4
2022-09-23T05:45:36.702Z,8.5
2022-09-23T05:47:39.816Z,8.5
2022-09-23T05:49:59.162Z,8.5
2022-09-23T05:52:00.895Z,8.6
2022-09-23T05:54:04.374Z,8.5
2022-09-23T05:56:07.172Z,8.6
2022-09-23T05:58:13.515Z,8.8
2022-09-23T06:00:16.642Z,8.7
2022-09-23T06:02:19.864Z,8.8
2022-09-23T06:04:22.939Z,8.8
2022-09-23T06:06:26.047Z,8.9
2022-09-23T06:08:29.190Z,9
2022-09-23T06:10:32.326Z,9.1
2022-09-23T06:12:38.686Z,9.1
2022-09-23T06:27:03.818Z,9.4
2022-09-23T06:29:06.964Z,9.6
2022-09-23T06:33:13.261Z,9.6
2022-09-23T06:37:20.467Z,9.8
2022-09-23T06:39:22.668Z,9.9
2022-09-23T06:43:32.161Z,9.9
2022-09-23T06:45:35.291Z,9.9
2022-09-23T06:46:38.531Z,9.9
2022-09-23T06:48:45.926Z,10.1
2022-09-23T06:50:44.741Z,10.2
2022-09-23T06:52:47.905Z,10.3
2022-09-23T06:54:54.247Z,10.5
2022-09-23T06:56:57.406Z,10.6
2022-09-23T07:01:03.694Z,10.7
2022-09-23T07:03:06.868Z,10.7
2022-09-23T07:05:09.973Z,10.8
2022-09-23T07:07:13.115Z,10.8
2022-09-23T07:09:19.491Z,10.7
2022-09-23T07:11:22.709Z,10.8
2022-09-23T07:13:25.797Z,10.9
2022-09-23T07:15:29.162Z,10.8
2022-09-23T07:17:32.104Z,10.8
2022-09-23T07:19:35.273Z,10.9
2022-09-23T07:21:38.406Z,11.2
2022-09-23T07:23:44.790Z,11.3
2022-09-23T07:29:54.236Z,11.5
2022-09-23T07:32:07.237Z,11.7
2022-09-23T07:36:03.677Z,12.1
2022-09-23T07:38:10.073Z,12.2
2022-09-23T07:40:13.320Z,12.2
2022-09-23T07:42:16.385Z,12.8
2022-09-23T07:43:19.579Z,13
2022-09-23T07:45:22.714Z,13.2
2022-09-23T07:47:25.886Z,13.5
2022-09-23T07:51:36.444Z,16
2022-09-23T07:57:44.904Z,16.2
2022-09-23T08:08:03.910Z,17.4
2022-09-23T08:14:13.288Z,16.7
2022-09-23T08:20:25.811Z,15.7
2022-09-23T08:24:31.928Z,15.9
2022-09-23T08:26:34.985Z,15.8
2022-09-23T08:28:38.040Z,15.7
2022-09-23T08:32:44.289Z,16.2
2022-09-23T08:42:02.741Z,18.5
2022-09-23T08:44:05.896Z,19.1
2022-09-23T08:46:08.835Z,19.5
2022-09-23T08:48:15.009Z,20
2022-09-23T08:50:18.052Z,19.3
2022-09-23T08:54:24.149Z,17.7
2022-09-23T08:58:30.260Z,16.8
2022-09-23T09:00:33.316Z,16.8
2022-09-23T09:04:42.547Z,16.5
2022-09-23T09:06:53.006Z,16.5
2022-09-23T09:10:51.685Z,16.6
2022-09-23T09:12:54.707Z,16.7
2022-09-23T09:14:57.759Z,16.9
2022-09-23T09:17:04.079Z,17.1
2022-09-23T09:19:07.015Z,17.3
2022-09-23T09:25:16.233Z,17.6
2022-09-23T09:27:19.138Z,17.9
2022-09-23T09:29:34.690Z,17.9
2022-09-23T09:31:29.332Z,18
2022-09-23T09:33:32.281Z,18
2022-09-23T09:35:35.303Z,18.2
2022-09-23T09:40:02.354Z,18.3
2022-09-23T09:42:05.375Z,18.2
2022-09-23T09:44:11.521Z,18.2
2022-09-23T09:46:14.662Z,18.4
2022-09-23T09:48:17.621Z,18.2
2022-09-23T09:50:20.636Z,18.3
2022-09-23T09:52:23.680Z,18.5
2022-09-23T09:54:26.644Z,18.7
2022-09-23T09:56:29.675Z,18.6
2022-09-23T09:58:35.833Z,18.8
2022-09-23T10:00:38.874Z,18.8
2022-09-23T10:02:41.909Z,18.7
2022-09-23T10:04:44.997Z,18.7
2022-09-23T10:10:54.012Z,18.6
2022-09-23T10:13:00.160Z,18.7
2022-09-23T10:15:03.190Z,18.7
2022-09-23T10:17:06.295Z,18.7
2022-09-23T10:19:09.347Z,18.8
2022-09-23T10:21:12.268Z,18.8
2022-09-23T10:23:15.287Z,18.8
2022-09-23T10:25:18.475Z,19
2022-09-23T10:27:24.422Z,18.9
2022-09-23T10:29:27.457Z,18.6
2022-09-23T10:31:30.470Z,18.3
2022-09-23T10:32:33.553Z,18.4
2022-09-23T10:34:36.567Z,18.4
2022-09-23T10:36:44.310Z,18.5
2022-09-23T10:38:42.601Z,18.7
2022-09-23T10:40:49.061Z,19
2022-09-23T10:42:51.762Z,19.1
2022-09-23T10:44:54.771Z,19.4
2022-09-23T10:46:57.775Z,19.2
2022-09-23T10:49:00.797Z,19.4
2022-09-23T10:51:03.816Z,19.6
2022-09-23T10:53:08.402Z,19.8
2022-09-23T10:55:14.469Z,19.3
2022-09-23T10:57:17.495Z,19.3
2022-09-23T11:01:23.527Z,19.6
2022-09-23T11:07:36.830Z,19.1
2022-09-23T11:11:41.626Z,19.4
2022-09-23T11:13:44.610Z,19.3
2022-09-23T11:15:47.621Z,19.1
2022-09-23T11:19:53.627Z,18.7
2022-09-23T11:21:56.609Z,18.9
2022-09-23T11:24:02.842Z,19.1
2022-09-23T11:26:05.739Z,18.9
2022-09-23T11:28:08.735Z,19.1
2022-09-23T11:31:14.872Z,18.9
2022-09-23T11:33:17.820Z,18.9
2022-09-23T11:37:26.953Z,19
2022-09-23T11:41:32.940Z,18.7
2022-09-23T11:43:35.973Z,18.9
2022-09-23T11:45:39.003Z,18.8
2022-09-23T11:47:41.992Z,18.5
2022-09-23T11:49:44.967Z,18.8
2022-09-23T11:51:51.097Z,18.7
2022-09-23T11:53:54.090Z,18.6
2022-09-23T11:55:58.337Z,18.6
2022-09-23T12:00:03.176Z,18.8
2022-09-23T12:02:15.973Z,19
2022-09-23T12:04:16.800Z,19.1
2022-09-23T12:06:15.318Z,19.2
2022-09-23T12:08:18.331Z,19.1
2022-09-23T12:12:27.141Z,19.2
2022-09-23T12:18:33.396Z,19.4
2022-09-23T12:22:42.512Z,19.6
2022-09-23T12:24:45.516Z,19.4
2022-09-23T12:25:48.604Z,19.3
2022-09-23T12:27:51.610Z,19.3
2022-09-23T12:29:54.627Z,19.3
2022-09-23T12:31:57.611Z,19.3
2022-09-23T12:34:03.865Z,19.6
2022-09-23T12:36:06.729Z,19.5
2022-09-23T12:38:09.733Z,19.7
2022-09-23T12:40:12.854Z,20
2022-09-23T12:42:15.769Z,20.1
2022-09-23T12:44:18.756Z,20.2
2022-09-23T12:46:21.881Z,20.1
2022-09-23T12:48:27.888Z,20.2
2022-09-23T12:50:30.858Z,20
2022-09-23T12:52:33.874Z,19.9
2022-09-23T12:54:36.835Z,20
2022-09-23T12:56:39.851Z,20.2
2022-09-23T12:58:42.815Z,20.3
2022-09-23T13:00:45.909Z,20.3
2022-09-23T13:02:51.946Z,20.2
2022-09-23T13:04:54.920Z,20.1
2022-09-23T13:06:57.890Z,20.1
2022-09-23T13:09:00.891Z,20.1
2022-09-23T13:11:03.866Z,19.8
2022-09-23T13:13:06.848Z,19.5
2022-09-23T13:17:15.956Z,19.8
2022-09-23T13:23:45.119Z,20.1
2022-09-23T13:25:48.136Z,20
2022-09-23T13:27:51.090Z,20
2022-09-23T13:29:57.229Z,19.9
2022-09-23T13:34:03.300Z,19.8
2022-09-23T13:36:06.159Z,19.7
2022-09-23T13:40:12.169Z,19.9
2022-09-23T13:42:15.108Z,20.1
2022-09-23T13:44:21.215Z,19.9
2022-09-23T13:46:24.185Z,19.9
2022-09-23T13:48:27.169Z,20.1
2022-09-23T13:50:34.697Z,19.8
2022-09-23T13:52:33.132Z,19.8
2022-09-23T13:54:36.107Z,19.8
2022-09-23T13:56:39.115Z,19.8
2022-09-23T13:58:45.242Z,19.9
2022-09-23T14:04:54.185Z,19.7
2022-09-23T14:06:57.161Z,19.8
2022-09-23T14:09:00.186Z,19.8
2022-09-23T14:11:03.153Z,19.8
2022-09-23T14:13:09.277Z,19.6
2022-09-23T14:15:12.264Z,19.6
2022-09-23T14:17:15.241Z,19.5
2022-09-23T14:18:18.297Z,19.2
2022-09-23T14:20:21.287Z,19.2
2022-09-23T14:22:24.266Z,19.2
2022-09-23T14:24:27.280Z,19.3
2022-09-23T14:26:33.403Z,19
2022-09-23T14:28:36.420Z,19
2022-09-23T14:30:39.432Z,19.2
2022-09-23T14:32:42.458Z,19.1
2022-09-23T14:34:45.456Z,19.1
2022-09-23T14:36:48.469Z,19
2022-09-23T14:38:51.463Z,19.2
2022-09-23T14:40:57.642Z,19.2
2022-09-23T14:43:00.585Z,19.1
2022-09-23T14:45:03.591Z,19.1
2022-09-23T14:47:11.608Z,19.1
2022-09-23T14:49:09.652Z,19
2022-09-23T14:51:16.900Z,19
2022-09-23T14:53:15.626Z,19
2022-09-23T14:55:21.744Z,19
2022-09-23T14:57:24.766Z,19
2022-09-23T14:59:27.805Z,19
2022-09-23T15:01:30.849Z,18.9
2022-09-23T15:03:33.911Z,18.9
2022-09-23T15:07:39.903Z,18.8
2022-09-23T15:09:46.041Z,18.6
2022-09-23T15:11:49.063Z,18.6
2022-09-23T15:13:52.059Z,18.6
2022-09-23T15:21:04.190Z,18.5
2022-09-23T15:25:13.345Z,18.6
2022-09-23T15:31:22.475Z,18.5
2022-09-23T15:35:28.454Z,18.5
2022-09-23T15:39:37.647Z,18.4
2022-09-23T15:41:40.704Z,18.3
2022-09-23T15:43:43.682Z,18.4
2022-09-23T15:45:46.781Z,18.4
2022-09-23T15:47:49.755Z,18.2
2022-09-23T15:49:52.757Z,18.3
2022-09-23T15:51:58.967Z,18.3
2022-09-23T15:54:01.924Z,18.3
2022-09-23T15:56:04.963Z,18.3
2022-09-23T16:02:14.124Z,18.4
2022-09-23T16:06:23.225Z,18.1
2022-09-23T16:08:26.265Z,18.2
2022-09-23T16:10:29.302Z,18.1
2022-09-23T16:11:32.401Z,18.3
2022-09-23T16:13:35.433Z,18.2
2022-09-23T16:15:38.471Z,18.1
2022-09-23T16:17:41.495Z,18.2
2022-09-23T16:19:47.642Z,18.1
2022-09-23T16:21:50.689Z,18.2
2022-09-23T16:23:53.734Z,18.1
2022-09-23T16:25:56.791Z,18.1
2022-09-23T16:27:59.826Z,17.9
2022-09-23T16:30:03.034Z,17.9
2022-09-23T16:32:05.955Z,17.9
2022-09-23T16:34:12.047Z,17.8
2022-09-23T16:36:15.074Z,17.8
2022-09-23T16:38:18.116Z,17.7
2022-09-23T16:40:21.257Z,17.7
2022-09-23T16:42:24.191Z,17.6
2022-09-23T16:44:27.249Z,17.6
2022-09-23T16:46:30.339Z,17.6
2022-09-23T16:48:37.990Z,17.7
2022-09-23T16:50:41.012Z,17.6
2022-09-23T16:52:44.075Z,17.6
2022-09-23T16:54:47.106Z,17.4
2022-09-23T16:56:50.155Z,17.4
2022-09-23T16:58:53.201Z,17.5
2022-09-23T17:00:56.362Z,17.5
2022-09-23T17:03:02.409Z,17.3
2022-09-23T17:05:05.461Z,17.2
2022-09-23T17:07:08.511Z,17.3
2022-09-23T17:09:31.199Z,17.3
2022-09-23T17:11:34.404Z,17.1
2022-09-23T17:13:37.276Z,17.2
2022-09-23T17:15:43.443Z,17.1
2022-09-23T17:21:52.605Z,17.1
2022-09-23T17:23:55.638Z,17
2022-09-23T17:34:14.047Z,16.8
2022-09-23T17:36:17.051Z,16.8
2022-09-23T17:40:23.220Z,16.6
2022-09-23T17:42:26.222Z,16.7
2022-09-23T17:44:32.383Z,16.6
2022-09-23T17:46:35.455Z,16.4
2022-09-23T17:48:38.494Z,16.4
2022-09-23T17:52:44.582Z,16.2
2022-09-23T17:54:47.641Z,16.2
2022-09-23T17:56:50.688Z,16.2
2022-09-23T17:58:56.863Z,16.2
2022-09-23T18:00:59.978Z,16.1
2022-09-23T18:03:02.950Z,16.1
2022-09-23T18:04:06.038Z,16.1
2022-09-23T18:08:12.128Z,15.9
2022-09-23T18:10:15.183Z,15.9
2022-09-23T18:12:21.354Z,15.8
2022-09-23T18:14:24.374Z,15.8
2022-09-23T18:20:33.519Z,15.6
2022-09-23T18:26:45.775Z,15.4
2022-09-23T18:28:48.821Z,15.4
2022-09-23T18:30:51.892Z,15.3
2022-09-23T18:32:54.940Z,15.3
2022-09-23T18:34:57.979Z,15.2
2022-09-23T18:37:01.032Z,15.2
2022-09-23T18:39:04.098Z,15.3
2022-09-23T18:41:10.289Z,15.2
2022-09-23T18:43:13.314Z,15.3
2022-09-23T18:45:16.373Z,15.2
2022-09-23T18:47:19.432Z,15.2
2022-09-23T18:49:22.467Z,15
2022-09-23T18:51:25.550Z,15.2
2022-09-23T18:53:28.598Z,15.1
2022-09-23T18:55:34.763Z,15
2022-09-23T18:57:37.817Z,15
2022-09-23T18:59:40.875Z,15
2022-09-23T19:00:44.147Z,14.9
2022-09-23T19:02:47.051Z,14.9
2022-09-23T19:04:50.063Z,14.8
2022-09-23T19:06:53.114Z,14.9
2022-09-23T19:08:59.300Z,14.9
2022-09-23T19:13:05.403Z,14.8
2022-09-23T19:19:14.572Z,14.6
2022-09-23T19:21:17.605Z,14.6
2022-09-23T19:23:23.797Z,14.7
2022-09-23T19:25:26.958Z,14.6
2022-09-23T19:27:30.114Z,14.6
2022-09-23T19:29:33.184Z,14.6
2022-09-23T19:31:36.368Z,14.6
2022-09-23T19:33:39.378Z,14.7
2022-09-23T19:35:42.444Z,14.7
2022-09-23T19:39:51.775Z,14.7
2022-09-23T19:41:54.811Z,14.8
2022-09-23T19:43:57.892Z,14.7
2022-09-23T19:48:04.216Z,14.8
2022-09-23T19:52:13.737Z,14.7
2022-09-23T19:54:16.915Z,14.7
2022-09-23T19:56:19.968Z,14.7
2022-09-23T19:57:23.058Z,14.7
2022-09-23T19:59:26.111Z,14.7
2022-09-23T20:03:32.427Z,14.6
2022-09-23T20:05:38.821Z,14.6
2022-09-23T20:09:45.135Z,14.7
2022-09-23T20:15:54.687Z,14.6
2022-09-23T20:30:19.995Z,14.7
2022-09-23T20:32:23.154Z,14.8
2022-09-23T20:34:29.539Z,14.7
2022-09-23T20:36:32.688Z,14.8
2022-09-23T20:38:35.852Z,14.8
2022-09-23T20:40:39.065Z,14.7
2022-09-23T20:42:42.211Z,14.7
2022-09-23T20:44:45.357Z,14.7
2022-09-23T20:46:48.987Z,14.7
2022-09-23T20:48:54.704Z,14.8
2022-09-23T20:50:57.765Z,14.8
2022-09-23T20:53:00.910Z,14.9
2022-09-23T20:55:30.566Z,14.9
2022-09-23T20:57:33.617Z,14.8
2022-09-23T20:59:36.689Z,14.8
2022-09-23T21:01:42.963Z,14.9
2022-09-23T21:03:45.890Z,14.8
2022-09-23T21:05:48.948Z,14.8
2022-09-23T21:09:55.263Z,14.9
2022-09-23T21:11:58.410Z,14.8
2022-09-23T21:16:08.049Z,14.8
2022-09-23T21:20:15.197Z,14.8
2022-09-23T21:22:18.354Z,14.8
2022-09-23T21:26:24.676Z,14.7
2022-09-23T21:28:27.856Z,14.7
2022-09-23T21:30:34.211Z,14.7
2022-09-23T21:36:43.690Z,14.7
2022-09-23T21:38:46.834Z,14.7
2022-09-23T21:40:50.098Z,14.6
2022-09-23T21:42:53.157Z,14.6
2022-09-23T21:44:59.547Z,14.7
2022-09-23T21:47:02.820Z,14.6
2022-09-23T21:49:05.888Z,14.7
2022-09-23T21:52:12.240Z,14.7
2022-09-23T21:54:15.396Z,14.6
2022-09-23T21:56:21.015Z,14.6
2022-09-23T21:58:24.989Z,14.6
2022-09-23T22:00:28.172Z,14.6
2022-09-23T22:02:31.300Z,14.6
2022-09-23T22:04:34.577Z,14.6
2022-09-23T22:06:37.643Z,14.6
2022-09-23T22:08:40.784Z,14.7
2022-09-23T22:10:43.962Z,14.5
2022-09-23T22:12:50.323Z,14.5
2022-09-23T22:14:53.481Z,14.6
2022-09-23T22:16:56.656Z,14.6
2022-09-23T22:18:59.808Z,14.6
2022-09-23T22:21:02.979Z,14.6
2022-09-23T22:23:06.107Z,14.6
2022-09-23T22:29:18.816Z,14.6
2022-09-23T22:31:22.028Z,14.5
2022-09-23T22:33:25.134Z,14.6
2022-09-23T22:37:31.439Z,14.6
2022-09-23T22:39:34.593Z,14.6
2022-09-23T22:46:52.108Z,14.5
2022-09-23T22:48:55.188Z,14.5
2022-09-23T22:50:58.352Z,14.5
2022-09-23T22:53:01.501Z,14.6
2022-09-23T22:55:07.946Z,14.4
2022-09-23T22:57:11.052Z,14.4
2022-09-23T22:59:14.193Z,14.3
2022-09-23T23:01:17.402Z,14.5
2022-09-23T23:03:20.661Z,14.5
2022-09-23T23:05:23.705Z,14.5
2022-09-23T23:07:26.855Z,14.4
2022-09-23T23:09:33.216Z,14.4
2022-09-23T23:11:36.381Z,14.5
2022-09-23T23:13:39.575Z,14.4
2022-09-23T23:15:42.829Z,14.4
2022-09-23T23:17:39.976Z,14.5
2022-09-23T23:19:43.134Z,14.4
2022-09-23T23:21:46.296Z,14.5
2022-09-23T23:23:52.651Z,14.5
2022-09-23T23:25:55.819Z,14.3
2022-09-23T23:27:58.975Z,14.3
2022-09-23T23:30:02.209Z,14.4
2022-09-23T23:32:05.190Z,14.4
2022-09-23T23:38:17.448Z,14.5
2022-09-23T23:40:20.594Z,14.5
2022-09-23T23:42:23.605Z,14.4
2022-09-23T23:43:26.762Z,14.4
2022-09-23T23:45:29.935Z,14.4
2022-09-23T23:47:33.099Z,14.3
2022-09-23T23:49:36.262Z,14.3
2022-09-23T23:51:42.632Z,14.5
2022-09-23T23:53:45.786Z,14.5
2022-09-23T23:55:48.943Z,14.5
2022-09-23T23:59:55.245Z,14.3
